Time;durP1;ratioP1;P1;durP2;ratioP2;P2;SDS_P1;SDS_P2;PMS_P1;PMS_P2;Temp;Humidity;BMP_temperature;BMP_pressure;BME280_temperature;BME280_humidity;BME280_pressure;Samples;Min_cycle;Max_cycle;Signal;HPM_P1;HPM_P2
2023/09/24 00:00:20;;;;;;;1.33;1.23;;;24.50;59.80;;;;;;5043325;28;20476;-76
2023/09/24 00:02:48;;;;;;;3.13;1.67;;;24.50;59.80;;;;;;5047870;28;20505;-77
2023/09/24 00:05:18;;;;;;;1.50;1.40;;;24.40;59.90;;;;;;5052028;28;20447;-76
2023/09/24 00:07:46;;;;;;;2.40;1.60;;;24.50;59.80;;;;;;5043906;28;20421;-76
2023/09/24 00:10:14;;;;;;;1.73;1.33;;;24.50;59.80;;;;;;5052677;28;20451;-76
2023/09/24 00:12:42;;;;;;;2.80;1.53;;;24.50;59.80;;;;;;5047450;28;20589;-76
2023/09/24 00:15:13;;;;;;;5.70;1.50;;;24.50;59.80;;;;;;5051954;28;20423;-76
2023/09/24 00:17:41;;;;;;;2.40;1.43;;;24.50;59.80;;;;;;5052519;28;20439;-76
2023/09/24 00:20:09;;;;;;;9.30;1.67;;;24.50;59.80;;;;;;5052216;28;20466;-77
2023/09/24 00:22:39;;;;;;;1.73;1.33;;;24.50;59.80;;;;;;5050114;28;20429;-77
2023/09/24 00:25:07;;;;;;;1.63;1.53;;;24.50;59.90;;;;;;5045752;28;20442;-77
2023/09/24 00:27:35;;;;;;;4.73;1.60;;;24.60;60.00;;;;;;5052373;28;20419;-77
2023/09/24 00:30:05;;;;;;;1.60;1.47;;;24.50;59.80;;;;;;5044664;28;20995;-77
2023/09/24 00:32:33;;;;;;;3.60;1.70;;;24.60;59.80;;;;;;5053176;28;20509;-76
2023/09/24 00:35:01;;;;;;;2.50;1.57;;;24.50;59.70;;;;;;5044608;28;20439;-77
2023/09/24 00:37:29;;;;;;;3.83;1.50;;;24.50;59.80;;;;;;5044449;28;20904;-77
2023/09/24 00:39:58;;;;;;;2.97;2.10;;;24.50;59.80;;;;;;5052950;28;20530;-77
2023/09/24 00:42:27;;;;;;;2.03;1.57;;;24.50;59.80;;;;;;5052291;28;20425;-77
2023/09/24 00:44:55;;;;;;;3.57;1.50;;;24.50;59.70;;;;;;5051660;28;20449;-77
2023/09/24 00:47:23;;;;;;;1.70;1.60;;;24.60;59.80;;;;;;5051824;28;20451;-77
2023/09/24 00:49:54;;;;;;;2.23;1.43;;;24.60;59.80;;;;;;5051799;28;20557;-77
2023/09/24 00:52:23;;;;;;;3.00;1.90;;;24.60;59.90;;;;;;5051287;28;20484;-76
2023/09/24 00:54:51;;;;;;;5.93;1.63;;;24.60;59.80;;;;;;5053404;28;20515;-76
2023/09/24 00:57:23;;;;;;;2.60;1.13;;;24.60;59.50;;;;;;5055876;28;20455;-76
2023/09/24 00:59:51;;;;;;;2.50;1.60;;;24.60;59.70;;;;;;5047624;28;20490;-76
2023/09/24 01:02:19;;;;;;;5.17;1.43;;;24.60;59.40;;;;;;5055922;28;20482;-77
2023/09/24 01:04:48;;;;;;;4.27;1.70;;;24.60;59.40;;;;;;5055673;28;20421;-76
2023/09/24 01:07:16;;;;;;;1.70;1.60;;;24.60;59.50;;;;;;5053815;28;20439;-76
2023/09/24 01:09:45;;;;;;;1.60;1.50;;;24.60;59.60;;;;;;5048699;28;20537;-76
2023/09/24 01:12:22;;;;;;;1.50;1.40;;;24.60;59.50;;;;;;5054946;28;20490;-76
2023/09/24 01:14:50;;;;;;;4.50;1.73;;;24.50;59.50;;;;;;5055233;28;20496;-76
2023/09/24 01:17:20;;;;;;;1.57;1.47;;;24.50;59.60;;;;;;5055088;28;20475;-76
2023/09/24 01:19:48;;;;;;;2.13;1.57;;;24.50;59.40;;;;;;5054982;28;20437;-76
2023/09/24 01:22:17;;;;;;;2.50;1.60;;;24.60;59.40;;;;;;5055184;28;20559;-76
2023/09/24 01:24:45;;;;;;;2.97;1.50;;;24.50;59.40;;;;;;5055036;28;20451;-76
2023/09/24 01:27:14;;;;;;;1.47;1.30;;;24.50;59.40;;;;;;5054772;28;20460;-76
2023/09/24 01:29:42;;;;;;;1.50;1.40;;;24.50;59.30;;;;;;5050444;28;20582;-76
2023/09/24 01:32:12;;;;;;;2.20;1.33;;;24.50;59.60;;;;;;5054462;28;20494;-76
2023/09/24 01:34:40;;;;;;;1.40;1.30;;;24.50;59.40;;;;;;5054846;28;20557;-77
2023/09/24 01:37:09;;;;;;;3.37;1.30;;;24.50;59.30;;;;;;5054825;28;20420;-77
2023/09/24 01:39:39;;;;;;;1.73;1.40;;;24.50;59.40;;;;;;5054866;28;20413;-76
2023/09/24 01:42:08;;;;;;;2.30;1.40;;;24.50;59.40;;;;;;5038105;28;20489;-76
2023/09/24 01:44:36;;;;;;;1.83;1.33;;;24.50;59.20;;;;;;5038645;28;20468;-76
2023/09/24 01:47:05;;;;;;;2.30;1.90;;;24.50;59.40;;;;;;5046229;28;20525;-76
2023/09/24 01:49:33;;;;;;;1.77;1.37;;;24.50;59.30;;;;;;5054759;28;20529;-76
2023/09/24 01:52:05;;;;;;;2.13;1.30;;;24.50;59.20;;;;;;5054406;28;20501;-77
2023/09/24 01:54:32;;;;;;;4.03;1.57;;;24.40;59.20;;;;;;5054699;28;20510;-76
2023/09/24 01:57:02;;;;;;;3.63;1.60;;;24.40;59.20;;;;;;5054513;28;20447;-76
2023/09/24 01:59:31;;;;;;;2.00;1.40;;;24.40;59.30;;;;;;5054042;28;20459;-76
2023/09/24 02:01:59;;;;;;;2.80;1.67;;;24.40;59.30;;;;;;5054302;28;20466;-75
2023/09/24 02:04:27;;;;;;;2.10;1.40;;;24.40;59.30;;;;;;5045904;28;20425;-75
2023/09/24 02:06:55;;;;;;;1.50;1.40;;;24.40;59.20;;;;;;5053815;28;20471;-76
2023/09/24 02:09:23;;;;;;;5.20;1.37;;;24.50;59.20;;;;;;5054516;28;20534;-76
2023/09/24 02:11:54;;;;;;;2.57;1.60;;;24.50;59.10;;;;;;5053832;28;20472;-76
2023/09/24 02:14:23;;;;;;;2.47;1.70;;;24.40;59.40;;;;;;5050332;28;20449;-76
2023/09/24 02:16:51;;;;;;;2.53;1.43;;;24.40;59.20;;;;;;5045778;28;20417;-76
2023/09/24 02:19:21;;;;;;;1.93;1.70;;;24.40;59.30;;;;;;5054046;28;20454;-76
2023/09/24 02:21:48;;;;;;;1.57;1.47;;;24.40;59.30;;;;;;5049497;28;20496;-76
2023/09/24 02:24:17;;;;;;;2.83;1.60;;;24.40;59.20;;;;;;5054139;28;20442;-76
2023/09/24 02:26:44;;;;;;;2.03;1.50;;;24.40;59.30;;;;;;5054312;28;20513;-76
2023/09/24 02:29:16;;;;;;;1.50;1.40;;;24.40;59.30;;;;;;5053909;28;20437;-76
2023/09/24 02:31:45;;;;;;;1.37;1.23;;;24.40;59.20;;;;;;5049675;28;20529;-76
2023/09/24 02:34:14;;;;;;;2.07;1.40;;;24.40;59.20;;;;;;5050152;28;20535;-76
2023/09/24 02:36:42;;;;;;;2.50;1.47;;;24.50;59.20;;;;;;5053777;28;20483;-76
2023/09/24 02:39:10;;;;;;;1.50;1.37;;;24.40;59.10;;;;;;5046110;28;20447;-76
2023/09/24 02:41:38;;;;;;;2.43;1.53;;;24.40;59.10;;;;;;5045381;28;20449;-76
2023/09/24 02:44:08;;;;;;;4.50;1.70;;;24.40;58.90;;;;;;5053783;28;20446;-76
2023/09/24 02:46:37;;;;;;;1.30;1.20;;;24.40;59.00;;;;;;5045396;28;20474;-76
2023/09/24 02:49:07;;;;;;;2.07;1.53;;;24.40;59.10;;;;;;5038321;28;20472;-76
2023/09/24 02:51:35;;;;;;;2.60;1.37;;;24.40;59.00;;;;;;5052873;28;20472;-76
2023/09/24 02:54:06;;;;;;;1.57;1.47;;;24.30;59.00;;;;;;5053027;28;20472;-76
2023/09/24 02:56:34;;;;;;;1.50;1.40;;;24.40;59.00;;;;;;5053771;28;20574;-76
2023/09/24 02:59:03;;;;;;;1.83;1.70;;;24.40;59.10;;;;;;5053463;28;20443;-76
2023/09/24 03:01:31;;;;;;;3.37;1.60;;;24.40;59.00;;;;;;5053204;28;20470;-76
2023/09/24 03:04:02;;;;;;;1.77;1.60;;;24.40;58.90;;;;;;5053184;28;20520;-76
2023/09/24 03:06:33;;;;;;;2.53;1.50;;;24.40;59.00;;;;;;5053073;28;20451;-77
2023/09/24 03:09:01;;;;;;;1.90;1.50;;;24.40;58.90;;;;;;5053302;28;20453;-77
2023/09/24 03:11:29;;;;;;;2.40;1.40;;;24.40;59.00;;;;;;5052991;28;20644;-76
2023/09/24 03:13:57;;;;;;;2.07;1.40;;;24.40;58.80;;;;;;5044766;28;20481;-76
2023/09/24 03:16:28;;;;;;;5.03;1.50;;;24.40;59.10;;;;;;5053158;28;20452;-76
2023/09/24 03:18:56;;;;;;;1.40;1.30;;;24.40;59.10;;;;;;5052318;28;20413;-76
2023/09/24 03:21:24;;;;;;;1.73;1.43;;;24.30;59.10;;;;;;5052968;28;20437;-76
2023/09/24 03:23:53;;;;;;;1.60;1.50;;;24.40;58.90;;;;;;5053022;28;20845;-76
2023/09/24 03:26:21;;;;;;;1.50;1.23;;;24.30;59.00;;;;;;5052983;28;20453;-76
2023/09/24 03:28:50;;;;;;;1.50;1.40;;;24.40;58.90;;;;;;5044838;28;20462;-76
2023/09/24 03:31:18;;;;;;;1.77;1.60;;;24.40;59.00;;;;;;5052957;28;20462;-76
2023/09/24 03:33:46;;;;;;;6.30;1.40;;;24.40;59.00;;;;;;5052685;28;20509;-76
2023/09/24 03:36:15;;;;;;;5.00;1.33;;;24.40;59.00;;;;;;5053163;28;20441;-77
2023/09/24 03:38:45;;;;;;;1.63;1.43;;;24.40;59.00;;;;;;5052759;28;20473;-76
2023/09/24 03:41:14;;;;;;;3.20;1.63;;;24.40;59.00;;;;;;5052263;28;20450;-76
2023/09/24 03:43:42;;;;;;;1.80;1.70;;;24.40;58.70;;;;;;5052662;28;20508;-76
2023/09/24 03:46:11;;;;;;;1.30;1.20;;;24.40;58.80;;;;;;5052574;28;20530;-76
2023/09/24 03:48:39;;;;;;;3.13;1.37;;;24.40;58.80;;;;;;5052770;28;20438;-76
2023/09/24 03:51:07;;;;;;;1.97;1.30;;;24.40;58.90;;;;;;5052580;28;20434;-77
2023/09/24 03:53:35;;;;;;;3.13;1.30;;;24.40;58.80;;;;;;5052539;28;20485;-77
2023/09/24 03:56:07;;;;;;;1.30;1.30;;;24.30;58.80;;;;;;5052794;28;20425;-77
2023/09/24 03:58:36;;;;;;;1.10;1.10;;;24.40;58.80;;;;;;5052640;28;20965;-77
2023/09/24 04:01:11;;;;;;;4.47;1.37;;;24.30;58.70;;;;;;5052564;28;20431;-76
2023/09/24 04:03:39;;;;;;;1.40;1.13;;;24.30;58.70;;;;;;5052232;28;20458;-76
2023/09/24 04:06:10;;;;;;;2.20;1.27;;;24.30;58.70;;;;;;5052921;28;20445;-76
2023/09/24 04:08:38;;;;;;;1.50;1.40;;;24.30;58.70;;;;;;5044653;28;20526;-76
2023/09/24 04:11:11;;;;;;;1.40;1.30;;;24.40;58.60;;;;;;5051679;28;20449;-77
2023/09/24 04:13:41;;;;;;;1.23;1.10;;;24.30;58.70;;;;;;5044143;28;20864;-77
2023/09/24 04:16:09;;;;;;;1.37;1.20;;;24.30;58.60;;;;;;5045996;28;20456;-77
2023/09/24 04:18:37;;;;;;;3.63;1.57;;;24.30;58.60;;;;;;5052108;28;20489;-76
2023/09/24 04:21:14;;;;;;;1.60;1.50;;;24.40;58.80;;;;;;5043434;28;20508;-76
2023/09/24 04:23:42;;;;;;;1.60;1.40;;;24.30;58.50;;;;;;5052268;28;20505;-76
2023/09/24 04:26:20;;;;;;;2.10;1.30;;;24.30;58.40;;;;;;5052037;28;20439;-76
2023/09/24 04:28:49;;;;;;;1.60;1.50;;;24.40;58.50;;;;;;5051732;28;20430;-76
2023/09/24 04:31:17;;;;;;;2.00;1.40;;;24.40;58.40;;;;;;5051633;28;20432;-76
2023/09/24 04:33:45;;;;;;;1.50;1.30;;;24.40;58.40;;;;;;5052090;28;20535;-77
2023/09/24 04:36:14;;;;;;;1.30;1.20;;;24.40;58.40;;;;;;5052145;28;20413;-76
2023/09/24 04:38:41;;;;;;;1.47;1.03;;;24.30;58.40;;;;;;5049118;28;20460;-76
2023/09/24 04:41:10;;;;;;;1.83;1.50;;;24.30;58.40;;;;;;5038357;28;20413;-76
2023/09/24 04:43:37;;;;;;;1.40;1.30;;;24.30;58.60;;;;;;5052017;28;20433;-76
2023/09/24 04:46:07;;;;;;;3.80;1.40;;;24.30;58.40;;;;;;5052015;28;20858;-76
2023/09/24 04:48:35;;;;;;;1.37;1.27;;;24.30;58.50;;;;;;5051798;28;20428;-76
2023/09/24 04:51:03;;;;;;;2.40;1.30;;;24.30;58.50;;;;;;5051709;28;20417;-76
2023/09/24 04:53:33;;;;;;;2.20;1.40;;;24.30;58.40;;;;;;5051751;28;20427;-76
2023/09/24 04:56:00;;;;;;;1.77;1.20;;;24.30;58.30;;;;;;5038848;28;20440;-77
2023/09/24 04:58:29;;;;;;;1.60;1.50;;;24.30;58.40;;;;;;5031282;28;20456;-76
2023/09/24 05:01:04;;;;;;;1.40;1.30;;;24.30;58.40;;;;;;5035845;28;20496;-76
2023/09/24 05:03:35;;;;;;;1.97;1.20;;;24.30;58.40;;;;;;5034461;28;20397;-76
2023/09/24 05:06:04;;;;;;;2.50;1.20;;;24.30;58.40;;;;;;5040386;28;20447;-76
2023/09/24 05:08:34;;;;;;;3.37;1.10;;;24.30;58.40;;;;;;5042780;28;20535;-76
2023/09/24 05:11:03;;;;;;;1.03;1.03;;;24.30;58.40;;;;;;5044725;28;20445;-76
2023/09/24 05:13:31;;;;;;;1.20;1.10;;;24.20;58.30;;;;;;5051688;28;20512;-76
2023/09/24 05:16:01;;;;;;;1.10;1.00;;;24.30;58.40;;;;;;5087866;22;20542;-78
2023/09/24 05:18:29;;;;;;;1.63;1.17;;;24.20;58.30;;;;;;5106056;28;20430;-79
2023/09/24 05:20:59;;;;;;;1.27;1.17;;;24.20;58.30;;;;;;5106611;28;20449;-78
2023/09/24 05:23:27;;;;;;;1.40;1.30;;;24.30;58.30;;;;;;5106343;28;20416;-78
2023/09/24 05:25:55;;;;;;;1.27;1.17;;;24.20;58.30;;;;;;5091468;28;20436;-78
2023/09/24 05:28:23;;;;;;;1.63;1.20;;;24.30;58.20;;;;;;5099508;28;20450;-78
2023/09/24 05:30:53;;;;;;;1.20;1.10;;;24.20;58.40;;;;;;5103815;28;20452;-78
2023/09/24 05:33:21;;;;;;;1.17;0.77;;;24.20;58.20;;;;;;5095478;28;20929;-78
2023/09/24 05:35:51;;;;;;;1.57;1.10;;;24.30;58.40;;;;;;5101904;28;20481;-78
2023/09/24 05:38:22;;;;;;;1.87;1.40;;;24.30;58.30;;;;;;5086509;28;20476;-79
2023/09/24 05:40:50;;;;;;;1.33;1.20;;;24.30;58.20;;;;;;5089488;28;20412;-78
2023/09/24 05:43:18;;;;;;;1.40;1.07;;;24.30;58.20;;;;;;5086564;28;20476;-78
2023/09/24 05:45:46;;;;;;;1.10;1.10;;;24.30;58.30;;;;;;5068775;28;20565;-78
2023/09/24 05:48:15;;;;;;;1.43;1.33;;;24.30;58.00;;;;;;5084495;28;20420;-78
2023/09/24 05:50:43;;;;;;;1.30;1.20;;;24.30;58.00;;;;;;5083535;28;20478;-78
2023/09/24 05:53:11;;;;;;;2.60;1.10;;;24.30;58.20;;;;;;5081897;28;20445;-78
2023/09/24 05:55:41;;;;;;;6.50;1.70;;;24.20;58.10;;;;;;5080621;28;20504;-78
2023/09/24 05:58:09;;;;;;;1.47;1.10;;;24.30;58.20;;;;;;5075887;28;20504;-78
2023/09/24 06:00:37;;;;;;;1.87;0.93;;;24.30;58.10;;;;;;5083794;28;20466;-78
2023/09/24 06:03:06;;;;;;;1.27;1.10;;;24.30;58.00;;;;;;5079331;28;20445;-78
2023/09/24 06:05:39;;;;;;;1.30;1.20;;;24.30;58.10;;;;;;5078915;28;20440;-78
2023/09/24 06:08:08;;;;;;;1.40;1.20;;;24.30;58.00;;;;;;5069091;28;20453;-77
2023/09/24 06:10:46;;;;;;;2.00;1.00;;;24.30;58.00;;;;;;5077511;28;20480;-78
2023/09/24 06:13:16;;;;;;;1.00;1.00;;;24.30;57.90;;;;;;5080350;28;20426;-78
2023/09/24 06:15:45;;;;;;;0.93;0.93;;;24.30;58.00;;;;;;5078949;28;20473;-78
2023/09/24 06:18:14;;;;;;;1.27;1.17;;;24.30;58.10;;;;;;5079003;28;20412;-79
2023/09/24 06:20:43;;;;;;;1.50;1.40;;;24.30;58.00;;;;;;5074993;28;20420;-74
2023/09/24 06:23:12;;;;;;;1.40;1.30;;;24.30;57.80;;;;;;5078923;28;20476;-77
2023/09/24 06:25:41;;;;;;;1.00;1.00;;;24.30;58.00;;;;;;5085446;28;20465;-77
2023/09/24 06:28:11;;;;;;;1.10;1.10;;;24.40;57.90;;;;;;5087934;28;20468;-78
2023/09/24 06:30:39;;;;;;;2.27;1.23;;;24.40;58.00;;;;;;5087796;28;20441;-77
2023/09/24 06:33:07;;;;;;;1.00;1.00;;;24.40;57.90;;;;;;5087054;28;20424;-78
2023/09/24 06:35:38;;;;;;;1.40;1.40;;;24.40;57.90;;;;;;5085924;28;20475;-77
2023/09/24 06:38:08;;;;;;;1.23;1.10;;;24.40;57.80;;;;;;5067807;28;20485;-78
2023/09/24 06:40:39;;;;;;;1.00;1.00;;;24.40;57.90;;;;;;5077723;28;20427;-78
2023/09/24 06:43:08;;;;;;;1.10;1.00;;;24.40;57.90;;;;;;5079168;28;20452;-78
2023/09/24 06:45:39;;;;;;;1.50;1.40;;;24.40;57.70;;;;;;5077445;28;20486;-77
2023/09/24 06:48:08;;;;;;;1.40;1.30;;;24.40;57.70;;;;;;5074698;28;20942;-76
2023/09/24 06:50:49;;;;;;;1.40;1.20;;;24.40;57.80;;;;;;5075641;28;20424;-77
2023/09/24 06:53:17;;;;;;;1.50;1.40;;;24.50;57.80;;;;;;5080789;28;20420;-78
2023/09/24 06:55:45;;;;;;;1.00;1.00;;;24.50;57.70;;;;;;5078915;28;20452;-78
2023/09/24 06:58:14;;;;;;;2.57;1.40;;;24.40;57.90;;;;;;5071929;28;20446;-77
2023/09/24 07:00:44;;;;;;;6.70;1.67;;;24.50;57.90;;;;;;5070531;28;20423;-75
2023/09/24 07:03:12;;;;;;;3.63;1.67;;;24.40;57.90;;;;;;5073385;28;20439;-79
2023/09/24 07:05:41;;;;;;;2.07;1.50;;;24.50;58.00;;;;;;5077353;28;20462;-78
2023/09/24 07:08:11;;;;;;;3.90;1.60;;;24.50;58.20;;;;;;5066216;28;20459;-77
2023/09/24 07:10:40;;;;;;;1.60;1.50;;;24.50;58.40;;;;;;5074636;28;20427;-78
2023/09/24 07:13:08;;;;;;;6.00;2.00;;;24.50;58.60;;;;;;5074439;28;20449;-79
2023/09/24 07:15:36;;;;;;;5.70;1.70;;;24.50;59.30;;;;;;5074646;28;20535;-79
2023/09/24 07:18:06;;;;;;;7.80;2.00;;;24.60;59.50;;;;;;5077812;28;20442;-78
2023/09/24 07:20:36;;;;;;;6.57;2.63;;;24.60;59.50;;;;;;5077952;28;20442;-78
2023/09/24 07:23:04;;;;;;;8.50;6.60;;;24.60;59.70;;;;;;5069946;28;20491;-80
2023/09/24 07:25:33;;;;;;;11.03;8.50;;;23.90;55.20;;;;;;5077788;28;20484;-81
2023/09/24 07:28:02;;;;;;;13.67;8.83;;;21.90;58.70;;;;;;5076238;28;20455;-80
2023/09/24 07:30:33;;;;;;;13.60;9.90;;;20.50;62.70;;;;;;5079448;28;20468;-80
2023/09/24 07:33:01;;;;;;;13.17;9.67;;;19.70;65.30;;;;;;5071691;28;20485;-79
2023/09/24 07:35:31;;;;;;;19.30;11.67;;;19.40;68.80;;;;;;5058724;28;20573;-80
2023/09/24 07:37:59;;;;;;;19.10;13.23;;;18.50;70.90;;;;;;5074810;28;20445;-79
2023/09/24 07:40:30;;;;;;;21.90;12.10;;;17.60;76.40;;;;;;5079219;28;20485;-82
2023/09/24 07:43:02;;;;;;;20.47;12.30;;;17.60;82.20;;;;;;5076168;28;20446;-78
2023/09/24 07:45:37;;;;;;;21.77;12.10;;;17.50;82.50;;;;;;5073132;28;20462;-77
2023/09/24 07:48:14;;;;;;;24.87;12.57;;;17.40;86.30;;;;;;5062120;28;20442;-80
2023/09/24 07:50:49;;;;;;;25.80;12.67;;;17.30;88.30;;;;;;5069292;28;20437;-79
2023/09/24 07:53:17;;;;;;;18.23;10.83;;;17.60;89.20;;;;;;5073281;28;20532;-77
2023/09/24 07:55:46;;;;;;;22.00;8.80;;;17.80;95.90;;;;;;5071849;28;20552;-78
2023/09/24 07:58:14;;;;;;;11.53;8.10;;;18.90;94.60;;;;;;5068309;28;20540;-78
2023/09/24 08:00:43;;;;;;;9.37;7.20;;;19.90;91.90;;;;;;5075986;28;20445;-78
2023/09/24 08:03:11;;;;;;;6.57;5.80;;;20.70;86.90;;;;;;5072929;28;20507;-78
2023/09/24 08:05:39;;;;;;;10.03;6.00;;;21.40;81.60;;;;;;5071491;28;20549;-78
2023/09/24 08:08:09;;;;;;;18.37;5.80;;;21.90;77.90;;;;;;5073357;28;20517;-78
2023/09/24 08:10:38;;;;;;;6.53;5.23;;;22.30;74.40;;;;;;5068264;28;20503;-78
2023/09/24 08:13:06;;;;;;;5.33;4.87;;;22.70;71.90;;;;;;5076862;28;20424;-78
2023/09/24 08:15:35;;;;;;;9.70;5.00;;;23.00;70.20;;;;;;5076696;28;20463;-78
2023/09/24 08:18:08;;;;;;;5.90;4.83;;;23.40;69.30;;;;;;5059116;28;20521;-78
2023/09/24 08:20:37;;;;;;;5.07;4.30;;;23.80;67.40;;;;;;5056701;28;20541;-78
2023/09/24 08:23:06;;;;;;;5.80;4.43;;;24.10;66.10;;;;;;5057644;28;21166;-79
2023/09/24 08:25:37;;;;;;;4.20;3.90;;;24.40;64.90;;;;;;5066165;28;20523;-76
2023/09/24 08:28:05;;;;;;;7.10;4.67;;;24.70;64.00;;;;;;5074486;28;20447;-77
2023/09/24 08:30:34;;;;;;;5.00;4.40;;;25.10;62.80;;;;;;5073896;28;20498;-77
2023/09/24 08:33:04;;;;;;;6.80;4.87;;;25.30;61.60;;;;;;5073126;28;20438;-77
2023/09/24 08:35:33;;;;;;;4.43;4.13;;;25.60;60.70;;;;;;5073504;28;20439;-77
2023/09/24 08:38:02;;;;;;;4.77;4.37;;;25.70;59.60;;;;;;5074291;28;20420;-77
2023/09/24 08:40:30;;;;;;;5.67;4.53;;;25.80;59.40;;;;;;5074821;28;20428;-77
2023/09/24 08:43:03;;;;;;;8.50;4.63;;;25.90;59.40;;;;;;5073606;28;20424;-77
2023/09/24 08:45:31;;;;;;;6.40;4.77;;;26.00;59.00;;;;;;5072740;28;20444;-77
2023/09/24 08:48:07;;;;;;;5.23;4.70;;;26.10;59.30;;;;;;5074086;28;20544;-77
2023/09/24 08:50:37;;;;;;;4.90;4.50;;;26.20;58.80;;;;;;5065412;28;20415;-77
2023/09/24 08:53:09;;;;;;;4.80;4.40;;;26.30;58.60;;;;;;5075860;28;20457;-77
2023/09/24 08:55:40;;;;;;;5.13;4.73;;;26.40;58.60;;;;;;5072790;28;20465;-77
2023/09/24 08:58:11;;;;;;;5.33;4.10;;;26.40;58.20;;;;;;5067822;28;20424;-77
2023/09/24 09:00:39;;;;;;;5.47;4.10;;;26.50;58.00;;;;;;5073268;28;20472;-77
2023/09/24 09:03:07;;;;;;;5.23;4.40;;;26.60;57.70;;;;;;5074031;28;20426;-78
2023/09/24 09:05:37;;;;;;;5.03;4.50;;;26.70;57.40;;;;;;5075310;28;20970;-78
2023/09/24 09:08:07;;;;;;;5.87;4.20;;;26.80;57.00;;;;;;5075033;28;20461;-77
2023/09/24 09:10:36;;;;;;;4.43;4.10;;;26.90;56.60;;;;;;5074556;28;20420;-77
2023/09/24 09:13:11;;;;;;;4.03;3.73;;;27.00;56.20;;;;;;5074102;28;20807;-78
2023/09/24 09:15:40;;;;;;;3.87;3.60;;;27.20;55.70;;;;;;5073516;28;20478;-77
2023/09/24 09:18:20;;;;;;;3.70;3.50;;;27.40;55.40;;;;;;5077730;28;20577;-78
2023/09/24 09:20:49;;;;;;;3.77;3.57;;;27.50;55.00;;;;;;5078182;28;20449;-77
2023/09/24 09:23:31;;;;;;;4.63;4.33;;;27.70;54.50;;;;;;5081202;28;20453;-77
2023/09/24 09:25:59;;;;;;;4.00;3.67;;;27.80;54.00;;;;;;5078338;28;20457;-77
2023/09/24 09:28:29;;;;;;;3.90;3.70;;;27.90;53.70;;;;;;5078205;28;20509;-76
2023/09/24 09:31:01;;;;;;;4.00;3.80;;;28.00;53.40;;;;;;5076952;28;20517;-77
2023/09/24 09:33:32;;;;;;;3.57;3.37;;;28.20;53.10;;;;;;5068758;28;20532;-77
2023/09/24 09:36:01;;;;;;;3.43;3.13;;;28.30;52.80;;;;;;5082799;28;20555;-78
2023/09/24 09:38:30;;;;;;;3.53;3.30;;;28.40;52.50;;;;;;5076673;28;20513;-76
2023/09/24 09:40:59;;;;;;;3.60;3.30;;;28.50;52.20;;;;;;5077596;28;20443;-77
2023/09/24 09:43:31;;;;;;;3.73;3.50;;;28.60;51.80;;;;;;5081534;28;20472;-77
2023/09/24 09:46:00;;;;;;;3.37;3.17;;;28.70;51.60;;;;;;5080790;28;20449;-77
2023/09/24 09:48:30;;;;;;;6.20;3.50;;;28.70;51.40;;;;;;5079770;28;20442;-77
2023/09/24 09:51:06;;;;;;;3.70;3.27;;;28.80;51.30;;;;;;5080307;28;20445;-77
2023/09/24 09:53:36;;;;;;;3.10;2.90;;;28.90;50.90;;;;;;5074626;28;20494;-77
2023/09/24 09:56:06;;;;;;;3.40;3.10;;;29.00;50.90;;;;;;5079333;28;20465;-76
2023/09/24 09:58:37;;;;;;;3.00;2.90;;;29.00;50.70;;;;;;5078221;28;20442;-77
2023/09/24 10:01:07;;;;;;;3.13;2.93;;;29.10;50.40;;;;;;5076362;28;20445;-77
2023/09/24 10:03:38;;;;;;;3.20;3.00;;;29.20;50.40;;;;;;5076140;28;20916;-77
2023/09/24 10:06:09;;;;;;;3.10;2.90;;;29.20;50.20;;;;;;5075386;28;20594;-77
2023/09/24 10:08:40;;;;;;;3.00;2.87;;;29.30;50.00;;;;;;5065305;28;20439;-77
2023/09/24 10:11:08;;;;;;;4.80;3.03;;;29.40;49.90;;;;;;5067782;28;20529;-76
2023/09/24 10:13:46;;;;;;;2.70;2.60;;;29.50;49.80;;;;;;5077874;28;20500;-76
2023/09/24 10:16:29;;;;;;;3.90;3.07;;;29.50;49.40;;;;;;5075252;28;20480;-76
2023/09/24 10:18:59;;;;;;;3.93;3.10;;;29.60;49.30;;;;;;5075409;28;20446;-76
2023/09/24 10:21:31;;;;;;;3.23;3.03;;;29.60;49.30;;;;;;5076175;28;20476;-77
2023/09/24 10:24:00;;;;;;;2.90;2.80;;;29.70;49.20;;;;;;5074887;28;20420;-76
2023/09/24 10:26:47;;;;;;;4.53;3.43;;;29.80;48.90;;;;;;5075178;28;20472;-76
2023/09/24 10:29:17;;;;;;;3.20;3.00;;;29.90;48.70;;;;;;5074721;28;20434;-77
2023/09/24 10:32:14;;;;;;;2.33;2.23;;;29.90;48.70;;;;;;5075759;28;20438;-76
2023/09/24 10:35:13;;;;;;;2.80;2.60;;;30.00;48.50;;;;;;5073858;28;20464;-76
2023/09/24 10:38:05;;;;;;;2.67;2.50;;;30.00;48.30;;;;;;5074178;28;20477;-77
2023/09/24 10:40:34;;;;;;;3.03;2.83;;;30.00;48.40;;;;;;5074294;28;20928;-76
2023/09/24 10:43:17;;;;;;;3.30;3.03;;;30.10;48.40;;;;;;5065148;28;20469;-76
2023/09/24 10:45:50;;;;;;;3.00;2.90;;;30.10;48.20;;;;;;5066323;28;20465;-77
2023/09/24 10:48:21;;;;;;;3.10;2.90;;;30.20;47.90;;;;;;5076624;28;20438;-78
2023/09/24 10:51:03;;;;;;;2.50;2.40;;;30.20;47.90;;;;;;5073266;28;20951;-76
2023/09/24 10:53:32;;;;;;;3.00;2.80;;;30.40;47.70;;;;;;5066989;28;20464;-76
2023/09/24 10:56:01;;;;;;;2.80;2.60;;;30.50;47.60;;;;;;5072684;28;20465;-76
2023/09/24 10:58:39;;;;;;;2.30;2.20;;;30.50;47.20;;;;;;5066799;28;20562;-76
2023/09/24 11:01:09;;;;;;;2.40;2.30;;;30.70;47.00;;;;;;5077705;28;20804;-77
2023/09/24 11:03:38;;;;;;;2.43;2.33;;;30.70;46.90;;;;;;5076310;28;20532;-76
2023/09/24 11:06:07;;;;;;;2.50;2.40;;;31.00;47.10;;;;;;5074735;28;20469;-78
2023/09/24 11:08:36;;;;;;;2.47;2.27;;;31.80;46.30;;;;;;5074738;28;20443;-78
2023/09/24 11:11:07;;;;;;;2.63;2.53;;;32.80;44.60;;;;;;5077603;28;20507;-79
2023/09/24 11:13:36;;;;;;;2.20;2.20;;;33.90;42.90;;;;;;5079536;28;20481;-79
2023/09/24 11:16:04;;;;;;;2.00;1.90;;;34.80;40.70;;;;;;5091159;22;20495;-77
2023/09/24 11:18:34;;;;;;;1.90;1.90;;;35.40;39.40;;;;;;5051993;28;20463;-77
2023/09/24 11:21:02;;;;;;;2.30;2.10;;;36.50;38.10;;;;;;5052082;28;20469;-79
2023/09/24 11:23:38;;;;;;;1.70;1.70;;;37.30;36.60;;;;;;5043760;28;20436;-78
2023/09/24 11:26:07;;;;;;;1.60;1.60;;;38.00;34.90;;;;;;5052181;28;20466;-79
2023/09/24 11:28:39;;;;;;;1.60;1.60;;;38.70;34.10;;;;;;5060686;28;20474;-78
2023/09/24 11:31:07;;;;;;;1.60;1.50;;;39.00;33.80;;;;;;5052377;28;20478;-78
2023/09/24 11:33:39;;;;;;;1.60;1.60;;;39.40;32.70;;;;;;5052530;28;20897;-79
2023/09/24 11:36:18;;;;;;;1.40;1.40;;;40.10;31.80;;;;;;5050987;28;20545;-76
2023/09/24 11:38:47;;;;;;;1.70;1.60;;;40.40;31.00;;;;;;5043932;28;20549;-78
2023/09/24 11:41:17;;;;;;;3.53;1.63;;;39.60;25.90;;;;;;5052226;28;20446;-77
2023/09/24 11:44:48;;;;;;;3.90;1.20;;;36.30;28.10;;;;;;5050669;28;20431;-78
2023/09/24 11:47:45;;;;;;;1.83;1.20;;;35.30;29.70;;;;;;5060147;28;20446;-77
2023/09/24 12:01:59;;;;;;;3.53;1.60;;;32.70;32.10;;;;;;4974437;28;20454;-79
2023/09/24 12:04:41;;;;;;;2.33;2.10;;;32.80;30.50;;;;;;5007496;28;20462;-79
2023/09/24 12:07:45;;;;;;;1.60;1.50;;;34.50;30.40;;;;;;5002651;28;20463;-80
2023/09/24 12:10:59;;;;;;;2.57;1.83;;;34.10;30.40;;;;;;4924647;29;20818;-78
2023/09/24 12:18:21;;;;;;;3.73;1.60;;;34.80;29.10;;;;;;4931588;29;20483;-78
2023/09/24 12:20:56;;;;;;;2.07;1.67;;;33.30;30.00;;;;;;4959624;28;20537;-79
2023/09/24 12:23:27;;;;;;;1.77;1.67;;;33.60;30.70;;;;;;5063194;28;20518;-77
2023/09/24 12:25:56;;;;;;;1.60;1.50;;;33.70;31.90;;;;;;5066592;28;20470;-78
2023/09/24 12:28:24;;;;;;;2.93;1.30;;;33.70;29.30;;;;;;5060801;28;20488;-78
2023/09/24 12:30:52;;;;;;;4.80;1.77;;;33.80;30.70;;;;;;5049625;28;20491;-78
2023/09/24 12:33:22;;;;;;;2.50;1.87;;;33.20;30.10;;;;;;5062388;28;20449;-78
2023/09/24 12:35:51;;;;;;;4.40;1.80;;;30.50;33.40;;;;;;5067891;28;20466;-79
2023/09/24 12:38:19;;;;;;;1.57;1.47;;;32.00;33.30;;;;;;5063079;28;20445;-76
2023/09/24 12:40:51;;;;;;;1.30;1.20;;;32.40;33.80;;;;;;5047736;28;20512;-78
2023/09/24 12:43:18;;;;;;;2.87;1.50;;;33.00;30.30;;;;;;5043466;28;20515;-79
2023/09/24 12:45:46;;;;;;;2.53;1.57;;;34.10;29.90;;;;;;5048630;28;20454;-78
2023/09/24 12:48:14;;;;;;;1.97;1.60;;;35.10;29.30;;;;;;5049149;28;20478;-79
2023/09/24 12:50:43;;;;;;;2.20;1.30;;;35.60;27.40;;;;;;5074301;28;20438;-80
2023/09/24 12:53:11;;;;;;;4.93;1.50;;;34.80;28.60;;;;;;5061200;28;20464;-79
2023/09/24 12:55:39;;;;;;;5.43;1.30;;;35.50;28.20;;;;;;5041692;28;20450;-78
2023/09/24 12:58:08;;;;;;;2.00;1.37;;;36.90;27.00;;;;;;5057726;28;20480;-78
2023/09/24 13:00:39;;;;;;;1.30;1.13;;;36.50;27.20;;;;;;5079163;28;20469;-79
2023/09/24 13:03:08;;;;;;;2.70;1.40;;;37.70;27.20;;;;;;5065310;28;20450;-78
2023/09/24 13:05:36;;;;;;;1.20;1.20;;;38.20;26.40;;;;;;5065552;28;20466;-78
2023/09/24 13:08:05;;;;;;;3.00;2.80;;;37.50;25.50;;;;;;5052292;28;20502;-79
2023/09/24 13:10:34;;;;;;;1.93;1.73;;;37.70;27.10;;;;;;5050908;28;20499;-77
2023/09/24 13:13:02;;;;;;;2.20;2.10;;;36.80;25.90;;;;;;5059693;28;20481;-77
2023/09/24 13:15:33;;;;;;;1.70;1.50;;;36.60;27.60;;;;;;5064531;28;20497;-78
2023/09/24 13:18:01;;;;;;;2.03;1.30;;;36.50;27.20;;;;;;5059520;28;20454;-78